Terminal Aerodrome Forecast
Issued by NWS Pendleton, OR

Home | Current Version | Previous Version | Text Only | Print | Product List | Glossary On
Versions: 1 2 3 4 5 6 7 8 9 10 11 12 13 14 15 16 17 18 19 20 21 22 23 24 25 26 27 28 29 30 31 32
000
FTUS46 KPDT 201700
TAFPDT
TAF
KPDT 201720Z 2018/2118 18010KT 6SM -RA BR OVC040
     FM210300 23013G23KT 6SM -RA BR OVC025
     FM210900 25030G40KT P6SM VCSH OVC030=

USA.gov is the U.S. government's official web portal to all federal, state and local government web resources and services.